KHHW

Details ICAO KHHW
Name STAN STAMPER MUNI
Region United States
Timezone America/Chicago (UTC-5.0)
Plans Departing 0
Arriving 1
Stats Elevation 571 ft / 174 m (AMSL)
Location 34.035936° -95.541905°
Runways 1
Magnetic Variation 2.440° E
Sunrise 2018-05-22 11:17:35 UTC / 2018-05-22 06:17:35 Local
Sunset 2018-05-23 01:22:59 UTC / 2018-05-22 20:22:59 Local
Advertisement - Login to hide

Runways

ID Width Length Bearing (true) Bearing (mag) Surface Threshold Offset Overrun Length
17 75 ft / 23 m 3,406 ft / 1,038 m 179.86° 177.42° Asphalt 0 ft / 0 m 0 ft / 0 m
35 75 ft / 23 m 3,406 ft / 1,038 m 359.86° 357.42° Asphalt 0 ft / 0 m 0 ft / 0 m

Map

Weather


0- 5 10 15 20 25 30 35+ Temperature / ° C

Clouds and Precipitation
Forecast for 2018-05-22 18:00 UTC. Updated 3 hours ago

Ground ~20,000 ft ~40,000 ft Winds

METAR

KHHW 221955Z AUTO 19006KT 10SM SCT041 SCT100 32/20 A2997 RMK AO2 LTG DSNT NE T03160196

TAF

Not found

Frequencies

Recorded 119.02 MHz AWOS 3
Approach 124.87 MHz FORT WORTH CNTR
Unicom 122.80 MHz CTAF/UNICOM
Warning: Do not use this data for real-world aviation or navigation. No guarantee of current accuracy is given.